Asbury, Missouri
Current Conditions -  °F | °C
As of 1:53 PM on Wednesday 17 Dec 2014 (Local Time) from KJLN Reporting Station
Light Rain Light Rain  
Wind Chill: 26°   Ceiling: 7000
Heat Index: 33°   Visibility: 9mi
Dew Point: 26°   Wind: 8mph
Humidity: 75%   Direction: 100°E
Pressure: 30.22"   Gusts: NA
Location:  37.27°N, 94.61°W
Report Text: KJLN 171953Z 10007KT 9SM -RA OVC070 01/M03 A3022 RMK AO2 UPE14RAB48 SLP239 P0000 T00061033
Loading
Personal Weather Stations






























Interactive Weather Map New forecast layout! Learn more

10-Day Weather Forecast

Advertisements
Track Severe Weather on mobile